LRCL/CLJ METAR and TAF weather

Enter ICAO airport designator
Station Type Date Time Source
LRCL METAR 2019/02/16 03:00 UTC NOAA

LRCL 160300Z 27004KT CAVOK M03/M06 Q1030


Station Type Date Time Source
LRCL Decoded METAR 2019/02/16 03:00 UTC NOAA

Cluj-Napoca, Romania (LRCL) 46-47N 023-34E 413M
Feb 15, 2019 - 10:00 PM EST / 2019.02.16 0300 UTC
Wind: from the W (270 degrees) at 5 MPH (4 KT):0
Visibility: greater than 7 mile(s):0
Temperature: 26 F (-3 C)
Windchill: 19 F (-7 C):1
Dew Point: 21 F (-6 C)
Relative Humidity: 79%
Pressure (altimeter): 30.42 in. Hg (1030 hPa)
ob: LRCL 160300Z 27004KT CAVOK M03/M06 Q1030
cycle: 3

Station Type Date Time Source
LRCL TAF 2007/05/23 16:57 UTC NOAA

TAF
AMD LRCL 231657Z 231607 VRB02MPS 9999 SCT030 BKN080
TEMPO 1719 VRB15G20MPS 1500 TSRAGR SCT010 BKN020CB OVC080


Example: see airport list